ADDS METAR Data INFO
IDs: Format: Raw Decoded Include TAF

Data at: 0751 UTC 17 Oct 2017

KAVX 170651Z AUTO 29009KT 10SM CLR 28/M18 A3009 RMK AO2 SLP150 T02781183
KAVX 170551Z AUTO 30010KT 10SM CLR 28/M22 A3010 RMK AO2 SLP153 T02831217 10289 20261 51005
KAVX 170451Z AUTO 30009KT 10SM CLR 28/M13 A3009 RMK AO2 SLP152 T02831128
KAVX 170351Z AUTO 30009KT 10SM CLR 28/M15 A3009 RMK AO2 SLP151 T02781150
KAVX 170251Z AUTO 27009KT 10SM CLR 27/M06 A3008 RMK AO2 SLP151 T02721061 53004
KAVX 170151Z AUTO 25009KT 10SM CLR 26/M03 A3008 RMK AO2 SLP151 T02611033
KAVX 170051Z AUTO 24007KT 10SM CLR 27/M03 A3007 RMK AO2 SLP148 T02671033
KAVX 162351Z AUTO 25008KT 10SM CLR 29/M06 A3007 RMK AO2 SLP147 T02891056 10333 20289 56010
KAVX 162251Z AUTO 25005KT 10SM CLR 31/01 A3008 RMK AO2 SLP149 T03060011
KAVX 162151Z AUTO 26007KT 10SM CLR 31/M03 A3008 RMK AO2 SLP151 T03111028
KAVX 162051Z AUTO 26007KT 10SM CLR 31/06 A3010 RMK AO2 SLP157 T03110061 58015
KAVX 161951Z AUTO 01004KT 10SM CLR 33/M07 A3012 RMK AO2 SLP161 T03331072
KAVX 161851Z AUTO 03004KT 10SM CLR 32/M08 A3014 RMK AO2 SLP168 T03221078
KAVX 161751Z AUTO 04006KT 10SM CLR 31/M07 A3015 RMK AO2 SLP173 T03061067 10306 20244 50007
KAVX 161651Z AUTO 01005KT 10SM CLR 29/M03 A3015 RMK AO2 SLP174 T02941033
KAVX 161551Z AUTO 01006KT 10SM CLR 28/M06 A3014 RMK AO2 SLP172 T02831056
KAVX 161451Z AUTO 02006KT 10SM CLR 27/M07 A3012 RMK AO2 SLP168 T02671072 53005
KAVX 161351Z AUTO 35004KT 10SM CLR 26/M07 A3012 RMK AO2 SLP166 T02561067 $
KAVX 161251Z AUTO 03007KT 10SM CLR 26/M04 A3011 RMK AO2 SLP163 T02561044 $
KAVX 161151Z AUTO 06006KT 10SM CLR 25/M04 A3011 RMK AO2 SLP161 T02501039 10256 20222 58007 $
KAVX 161051Z AUTO 06006KT 10SM CLR 24/M07 A3012 RMK AO2 SLP164 T02441067 $
KAVX 160951Z AUTO 05006KT 10SM CLR 24/M07 A3013 RMK AO2 SLP167 T02441067 $
KAVX 160851Z AUTO 06004KT 10SM CLR 24/M05 A3013 RMK AO2 SLP167 T02441050 56001 $
KAVX 160751Z AUTO 03004KT 10SM CLR 25/M06 A3013 RMK AO2 SLP167 T02501061 403170222 $
KAVX 160651Z AUTO 04008KT 10SM CLR 24/M02 A3013 RMK AO2 SLP168 T02441017 $
KAVX 160551Z AUTO 05006KT 10SM CLR 24/00 A3013 RMK AO2 SLP170 T02440000 10289 20239 50004 $
KAVX 160451Z AUTO 04005KT 10SM CLR 26/00 A3014 RMK AO2 SLP170 T02610000 $
KAVX 160351Z AUTO 04003KT 10SM CLR 26/00 A3013 RMK AO2 SLP167 T02610000 $
KAVX 160251Z AUTO 25006KT 10SM CLR 26/M04 A3012 RMK AO2 SLP168 T02561044 53009 $
KAVX 160151Z AUTO 26004KT 10SM CLR 26/M04 A3011 RMK AO2 SLP164 T02611044 $
KAVX 160051Z AUTO 24005KT 10SM CLR 27/03 A3010 RMK AO2 SLP160 T02720033 $
KAVX 152351Z AUTO 27004KT 10SM CLR 29/05 A3009 RMK AO2 SLP158 T02890050 10317 20283 56004 $
KAVX 152251Z AUTO VRB04KT 10SM CLR 29/06 A3010 RMK AO2 SLP158 T02890056 $
KAVX 152151Z AUTO 00000KT 10SM CLR 29/08 A3010 RMK AO2 SLP159 T02940078 $
KAVX 152051Z AUTO 11007KT 10SM CLR 31/M06 A3011 RMK AO2 SLP160 T03061061 58011 $